Time;durP1;ratioP1;P1;durP2;ratioP2;P2;SDS_P1;SDS_P2;PMS_P1;PMS_P2;Temp;Humidity;BMP_temperature;BMP_pressure;BME280_temperature;BME280_humidity;BME280_pressure;Samples;Min_cycle;Max_cycle;Signal;HPM_P1;HPM_P2
2022/09/02 00:00:59;;;;;;;4.87;1.73;;;;;;;14.55;53.18;100409.67;1477775;88;22469;-81
2022/09/02 00:03:28;;;;;;;7.50;1.90;;;;;;;14.50;53.42;100405.33;1476118;87;21582;-83
2022/09/02 00:05:54;;;;;;;7.47;2.03;;;;;;;14.49;53.16;100409.83;1467320;87;21485;-82
2022/09/02 00:08:20;;;;;;;3.27;1.60;;;;;;;14.47;53.37;100403.02;1476235;88;21478;-82
2022/09/02 00:10:46;;;;;;;5.90;1.50;;;;;;;14.48;53.17;100403.36;1461271;88;21463;-82
2022/09/02 00:13:18;;;;;;;8.17;1.50;;;;;;;14.45;53.37;100402.70;1470073;87;22074;-80
2022/09/02 00:15:45;;;;;;;1.60;1.20;;;;;;;14.47;53.11;100399.02;1464061;88;21464;-83
2022/09/02 00:18:14;;;;;;;3.80;1.63;;;;;;;14.47;53.26;100403.84;1485582;87;22292;-83
2022/09/02 00:20:43;;;;;;;4.17;1.77;;;;;;;14.49;53.52;100398.35;1476509;87;21729;-85
2022/09/02 00:23:11;;;;;;;2.03;1.17;;;;;;;14.52;53.20;100399.37;1487623;87;21514;-81
2022/09/02 00:25:38;;;;;;;2.60;1.60;;;;;;;14.54;53.02;100386.21;1483736;88;22214;-84
2022/09/02 00:28:06;;;;;;;5.27;1.63;;;;;;;14.56;52.93;100384.21;1450895;89;22492;-84
2022/09/02 00:30:34;;;;;;;4.37;1.87;;;;;;;14.58;52.75;100386.68;1471800;88;22454;-81
2022/09/02 00:33:01;;;;;;;4.67;1.80;;;;;;;14.60;52.73;100387.34;1480146;87;21648;-84
2022/09/02 00:35:29;;;;;;;10.07;1.47;;;;;;;14.62;52.56;100388.02;1462641;88;21389;-82
2022/09/02 00:37:55;;;;;;;4.60;1.77;;;;;;;14.64;52.52;100384.65;1453148;88;21434;-84
2022/09/02 00:40:22;;;;;;;5.73;1.67;;;;;;;14.64;52.37;100384.65;1488875;87;21478;-84
2022/09/02 00:42:50;;;;;;;4.33;2.23;;;;;;;14.65;52.41;100381.00;1483375;87;21591;-83
2022/09/02 00:45:18;;;;;;;2.57;1.80;;;;;;;14.66;52.26;100386.13;1469541;87;21573;-83
2022/09/02 00:47:44;;;;;;;3.20;1.40;;;;;;;14.70;52.22;100389.27;1469107;87;21523;-83
2022/09/02 00:50:15;;;;;;;11.53;2.53;;;;;;;14.69;52.22;100387.62;1476494;88;21443;-81
2022/09/02 00:52:44;;;;;;;;;;;;;;;14.72;52.05;100381.12;1487197;88;21546;-85
2022/09/02 00:55:16;;;;;;;9.33;1.77;;;;;;;14.72;52.33;100388.60;1461901;88;20357;-81
2022/09/02 00:57:50;;;;;;;2.10;1.70;;;;;;;14.76;51.90;100384.60;1486286;86;21708;-81
2022/09/02 01:00:24;;;;;;;6.27;1.53;;;;;;;14.77;51.85;100383.58;1502087;86;22161;-83
2022/09/02 01:02:58;;;;;;;2.57;1.40;;;;;;;14.82;51.91;100390.55;1461509;88;21618;-84
2022/09/02 01:05:30;;;;;;;3.33;1.60;;;;;;;14.83;51.87;100397.53;1477290;88;22452;-83
2022/09/02 01:07:58;;;;;;;4.50;2.27;;;;;;;14.86;51.62;100397.17;1484244;88;21655;-83
2022/09/02 01:10:33;;;;;;;2.93;1.27;;;;;;;14.87;51.62;100388.20;1476257;87;21694;-84
2022/09/02 01:13:05;;;;;;;6.20;1.60;;;;;;;14.88;51.47;100392.51;1455883;89;21655;-82
2022/09/02 01:15:31;;;;;;;4.90;1.40;;;;;;;14.92;51.40;100398.30;1456962;88;21449;-83
2022/09/02 01:17:58;;;;;;;3.17;1.57;;;;;;;14.93;51.25;100392.47;1455957;88;21581;-82
2022/09/02 01:20:25;;;;;;;7.90;2.03;;;;;;;14.94;51.32;100384.31;1488224;87;21596;-83
2022/09/02 01:22:53;;;;;;;2.43;1.43;;;;;;;14.95;51.67;100383.30;1486252;87;22585;-84
2022/09/02 01:25:27;;;;;;;3.00;1.47;;;;;;;14.98;51.65;100382.11;1478507;87;22417;-80
2022/09/02 01:27:55;;;;;;;4.27;2.00;;;;;;;14.99;51.55;100385.09;1470959;88;21478;-85
2022/09/02 01:30:24;;;;;;;4.23;1.40;;;;;;;14.99;51.57;100383.77;1468977;88;21484;-81
2022/09/02 01:32:51;;;;;;;2.57;1.50;;;;;;;15.02;51.28;100387.44;1457497;88;22423;-82
2022/09/02 01:35:17;;;;;;;3.87;1.73;;;;;;;15.01;51.19;100381.76;1463070;88;21493;-82
2022/09/02 01:37:45;;;;;;;5.17;1.83;;;;;;;15.04;51.98;100386.22;1450431;89;21581;-84
2022/09/02 01:40:15;;;;;;;5.47;1.73;;;;;;;15.07;51.37;100382.38;1457633;89;21471;-82
2022/09/02 01:42:45;;;;;;;3.27;1.50;;;;;;;15.07;51.64;100380.53;1452874;88;21633;-84
2022/09/02 01:45:11;;;;;;;3.07;1.57;;;;;;;15.08;51.26;100387.55;1454125;88;21485;-83
2022/09/02 01:47:37;;;;;;;7.17;2.47;;;;;;;15.12;51.11;100390.67;1487059;88;22365;-81
2022/09/02 01:50:06;;;;;;;12.57;2.43;;;;;;;15.10;51.02;100385.54;1472712;87;21506;-82
2022/09/02 01:52:33;;;;;;;2.53;1.50;;;;;;;15.08;51.24;100378.22;1475914;87;21507;-82
2022/09/02 01:54:59;;;;;;;2.67;1.60;;;;;;;15.09;51.12;100377.20;1473695;88;23631;-77
2022/09/02 01:57:25;;;;;;;10.57;1.97;;;;;;;15.10;51.14;100382.02;1475139;88;21715;-81
2022/09/02 01:59:53;;;;;;;6.00;2.10;;;;;;;15.11;51.59;100377.03;1477089;88;21463;-82
2022/09/02 02:02:19;;;;;;;5.67;2.00;;;;;;;15.11;51.28;100375.19;1468381;88;22455;-81
2022/09/02 02:04:47;;;;;;;4.33;1.50;;;;;;;15.08;51.58;100363.55;1474161;88;21456;-81
2022/09/02 02:07:16;;;;;;;4.77;2.00;;;;;;;15.07;51.80;100371.20;1482556;87;21478;-81
2022/09/02 02:09:43;;;;;;;2.27;1.30;;;;;;;15.09;51.55;100371.05;1486182;88;21535;-80
2022/09/02 02:12:09;;;;;;;5.03;1.70;;;;;;;15.08;51.22;100369.39;1464834;88;21477;-83
2022/09/02 02:14:36;;;;;;;7.17;1.70;;;;;;;15.07;51.16;100369.05;1480755;88;22490;-81
2022/09/02 02:17:03;;;;;;;2.23;1.30;;;;;;;15.07;51.76;100375.20;1461354;87;21517;-83
2022/09/02 02:19:30;;;;;;;3.10;1.77;;;;;;;15.06;51.40;100378.06;1484273;87;22494;-82
2022/09/02 02:21:56;;;;;;;6.33;1.90;;;;;;;15.07;51.65;100373.05;1462932;88;21488;-83
2022/09/02 02:24:23;;;;;;;4.63;1.33;;;;;;;15.06;51.49;100370.06;1457207;88;21444;-83
2022/09/02 02:26:49;;;;;;;7.17;1.53;;;;;;;15.06;51.66;100374.06;1471193;88;22759;-81
2022/09/02 02:29:15;;;;;;;5.67;1.60;;;;;;;15.04;51.31;100368.90;1488610;88;21621;-82
2022/09/02 02:31:42;;;;;;;5.83;2.13;;;;;;;15.04;51.65;100374.73;1459109;88;22105;-82
2022/09/02 02:34:09;;;;;;;4.40;2.13;;;;;;;15.05;51.78;100373.23;1461063;88;22316;-82
2022/09/02 02:36:37;;;;;;;4.40;1.67;;;;;;;15.05;51.59;100369.75;1482806;88;21576;-81
2022/09/02 02:39:06;;;;;;;6.07;1.90;;;;;;;15.05;51.61;100367.09;1468417;88;21406;-81
2022/09/02 02:41:33;;;;;;;4.80;1.60;;;;;;;15.06;51.88;100364.73;1477500;88;21672;-85
2022/09/02 02:43:59;;;;;;;4.60;1.70;;;;;;;15.06;51.77;100360.73;1465002;88;21466;-81
2022/09/02 02:46:25;;;;;;;3.43;1.53;;;;;;;15.06;51.64;100361.56;1457722;88;21495;-85
2022/09/02 02:48:51;;;;;;;2.80;1.60;;;;;;;15.05;51.72;100361.76;1464241;88;21429;-84
2022/09/02 02:51:17;;;;;;;4.73;2.13;;;;;;;14.99;51.65;100359.77;1479266;88;22721;-85
2022/09/02 02:53:43;;;;;;;4.97;1.47;;;;;;;15.02;51.89;100362.12;1468045;88;21451;-85
2022/09/02 02:56:10;;;;;;;3.47;1.97;;;;;;;15.00;51.87;100361.45;1457505;89;21536;-85
2022/09/02 02:58:36;;;;;;;4.87;2.20;;;;;;;14.97;51.97;100359.15;1461748;88;21598;-83
2022/09/02 03:01:03;;;;;;;5.37;1.90;;;;;;;15.00;51.95;100361.45;1454715;88;21451;-83
2022/09/02 03:03:30;;;;;;;3.07;1.63;;;;;;;14.96;52.33;100361.47;1456275;88;22405;-83
2022/09/02 03:05:57;;;;;;;3.63;1.90;;;;;;;15.00;52.06;100364.12;1459907;88;21488;-83
2022/09/02 03:08:25;;;;;;;3.47;1.90;;;;;;;15.00;52.18;100361.45;1473927;88;21458;-83
2022/09/02 03:10:53;;;;;;;2.73;1.70;;;;;;;14.98;52.21;100360.80;1467890;88;22381;-82
2022/09/02 03:13:24;;;;;;;4.33;1.97;;;;;;;14.95;52.42;100353.98;1488964;88;22366;-82
2022/09/02 03:15:51;;;;;;;3.03;1.67;;;;;;;14.94;52.21;100355.51;1457668;88;21539;-84
2022/09/02 03:18:18;;;;;;;5.13;2.43;;;;;;;14.91;52.43;100353.20;1473255;88;21472;-83
2022/09/02 03:20:44;;;;;;;7.70;1.60;;;;;;;14.91;52.37;100357.20;1477488;87;21567;-84
2022/09/02 03:23:14;;;;;;;4.63;1.90;;;;;;;14.93;52.67;100353.83;1476654;88;21565;-83
2022/09/02 03:25:42;;;;;;;3.17;2.03;;;;;;;14.91;52.44;100354.53;1459095;87;21515;-82
2022/09/02 03:28:09;;;;;;;2.83;1.87;;;;;;;14.88;52.44;100355.20;1450369;89;21419;-83
2022/09/02 03:30:36;;;;;;;4.50;1.97;;;;;;;14.86;52.69;100352.39;1466386;88;21463;-80
2022/09/02 03:33:04;;;;;;;5.03;2.43;;;;;;;14.87;53.12;100358.89;1474603;87;21492;-81
2022/09/02 03:35:31;;;;;;;3.03;1.63;;;;;;;14.86;52.84;100354.55;1470664;87;21468;-80
2022/09/02 03:38:00;;;;;;;6.47;2.30;;;;;;;14.85;52.87;100360.89;1470296;87;21552;-81
2022/09/02 03:40:27;;;;;;;9.07;2.30;;;;;;;14.85;52.83;100363.55;1447281;88;21456;-81
2022/09/02 03:42:55;;;;;;;5.10;2.10;;;;;;;14.85;53.07;100368.88;1463950;88;22050;-82
2022/09/02 03:45:22;;;;;;;5.67;2.03;;;;;;;14.86;52.92;100367.05;1462534;87;21486;-84
2022/09/02 03:47:55;;;;;;;7.33;2.30;;;;;;;14.87;52.85;100368.21;1467790;88;22329;-81
2022/09/02 03:50:28;;;;;;;3.03;1.60;;;;;;;14.86;52.95;100369.20;1475161;88;21456;-81
2022/09/02 03:52:57;;;;;;;7.73;2.30;;;;;;;14.84;53.09;100369.88;1454939;88;21376;-82
2022/09/02 03:55:25;;;;;;;4.80;2.07;;;;;;;14.83;53.02;100364.23;1459540;87;21465;-82
2022/09/02 03:57:52;;;;;;;4.40;2.20;;;;;;;14.81;53.19;100372.06;1457120;90;21464;-82
2022/09/02 04:00:23;;;;;;;2.90;1.90;;;;;;;14.85;53.18;100370.22;1462776;88;22116;-80
2022/09/02 04:02:54;;;;;;;4.30;2.20;;;;;;;14.82;53.27;100370.57;1473031;88;21508;-81
2022/09/02 04:05:21;;;;;;;6.15;1.80;;;;;;;14.81;53.36;100372.06;1467999;88;21448;-81
2022/09/02 04:07:50;;;;;;;3.70;1.83;;;;;;;14.79;53.40;100377.59;1453815;89;21502;-80
2022/09/02 04:10:16;;;;;;;5.17;1.87;;;;;;;14.82;53.26;100373.23;1462761;88;21515;-82
2022/09/02 04:12:42;;;;;;;2.77;2.00;;;;;;;14.82;53.58;100372.41;1453552;87;22342;-84
2022/09/02 04:15:11;;;;;;;11.43;2.60;;;;;;;14.83;53.39;100382.87;1459521;88;21433;-84
2022/09/02 04:17:40;;;;;;;5.77;3.00;;;;;;;14.83;53.35;100372.22;1473425;88;21524;-83
2022/09/02 04:20:10;;;;;;;2.43;1.50;;;;;;;14.83;53.52;100374.88;1443761;87;21588;-83
2022/09/02 04:22:36;;;;;;;4.22;2.17;;;;;;;14.83;53.68;100380.21;1444092;90;21501;-83
2022/09/02 04:25:04;;;;;;;5.80;2.50;;;;;;;14.83;53.82;100389.53;1468525;88;21435;-83
2022/09/02 04:27:31;;;;;;;5.60;1.87;;;;;;;14.82;54.10;100379.89;1456189;88;21656;-84
2022/09/02 04:29:57;;;;;;;4.07;2.00;;;;;;;14.83;54.06;100384.20;1472257;87;21397;-82
2022/09/02 04:32:25;;;;;;;5.37;2.77;;;;;;;14.86;53.82;100379.03;1471500;87;21506;-82
2022/09/02 04:34:51;;;;;;;5.87;1.57;;;;;;;14.88;53.80;100387.18;1477398;88;21500;-82
2022/09/02 04:37:17;;;;;;;4.60;2.80;;;;;;;14.90;53.82;100384.32;1477029;88;21375;-82
2022/09/02 04:39:43;;;;;;;8.80;2.13;;;;;;;14.90;54.02;100384.32;1469844;87;21405;-84
2022/09/02 04:42:09;;;;;;;4.10;2.20;;;;;;;14.91;54.21;100382.52;1475603;88;22278;-80
2022/09/02 04:44:35;;;;;;;5.80;2.03;;;;;;;14.95;54.09;100382.47;1461197;88;21412;-76
2022/09/02 04:47:02;;;;;;;8.03;2.30;;;;;;;14.98;54.28;100380.78;1451232;88;21633;-77
2022/09/02 04:49:30;;;;;;;4.23;2.20;;;;;;;14.98;53.94;100381.61;1457377;90;21456;-78
2022/09/02 04:51:56;;;;;;;11.37;2.33;;;;;;;15.02;54.00;100386.10;1455492;89;22040;-78
2022/09/02 04:54:23;;;;;;;6.53;1.97;;;;;;;15.04;54.30;100386.73;1470574;88;21508;-80
2022/09/02 04:56:49;;;;;;;5.20;2.43;;;;;;;15.06;54.07;100388.73;1471514;88;21574;-79
2022/09/02 04:59:15;;;;;;;8.33;2.97;;;;;;;15.06;54.17;100396.72;1472894;88;21412;-78
2022/09/02 05:01:41;;;;;;;7.60;2.37;;;;;;;15.06;54.36;100395.39;1476042;87;22579;-78
2022/09/02 05:04:08;;;;;;;9.13;2.20;;;;;;;15.08;54.28;100393.38;1473008;88;21531;-80
2022/09/02 05:06:37;;;;;;;5.33;2.93;;;;;;;15.09;54.42;100388.37;1460547;88;21486;-81
2022/09/02 05:09:03;;;;;;;9.53;2.20;;;;;;;15.11;54.14;100385.03;1471745;88;21626;-79
2022/09/02 05:11:32;;;;;;;6.53;2.37;;;;;;;15.15;54.43;100388.98;1472114;88;21398;-79
2022/09/02 05:14:03;;;;;;;5.40;2.17;;;;;;;15.19;54.27;100390.78;1472382;88;21471;-79
2022/09/02 05:16:35;;;;;;;7.05;3.05;;;;;;;15.20;54.43;100387.13;1477743;87;21398;-79
2022/09/02 05:19:04;;;;;;;6.43;3.53;;;;;;;15.23;54.71;100394.26;1471259;87;21508;-78
2022/09/02 05:21:30;;;;;;;5.03;2.13;;;;;;;15.27;54.27;100391.55;1474811;87;21412;-78
2022/09/02 05:23:57;;;;;;;6.93;2.47;;;;;;;15.27;54.26;100385.39;1470584;88;22521;-79
2022/09/02 05:26:24;;;;;;;5.97;2.30;;;;;;;15.30;54.42;100385.03;1472554;88;21598;-78
2022/09/02 05:28:50;;;;;;;5.73;2.63;;;;;;;15.37;54.39;100389.16;1467470;87;21463;-77
2022/09/02 05:31:19;;;;;;;4.13;2.17;;;;;;;15.37;54.26;100386.50;1473256;87;21478;-76
2022/09/02 05:33:46;;;;;;;14.20;2.70;;;;;;;15.40;54.15;100390.13;1389862;88;22359;-78
2022/09/02 05:36:21;;;;;;;5.20;2.33;;;;;;;15.39;54.23;100385.79;1462669;87;21545;-77
2022/09/02 05:38:48;;;;;;;12.43;2.53;;;;;;;15.39;54.22;100385.79;1474049;87;21471;-78
2022/09/02 05:41:22;;;;;;;6.97;2.33;;;;;;;15.43;54.34;100383.11;1472717;88;21552;-78
2022/09/02 05:43:48;;;;;;;7.60;2.73;;;;;;;15.44;54.70;100387.42;1467728;87;21544;-79
2022/09/02 05:46:18;;;;;;;5.97;2.10;;;;;;;15.44;54.43;100386.09;1480954;87;21655;-79
2022/09/02 05:51:33;;;;;;;5.87;2.70;;;;;;;15.46;54.46;100382.74;1479472;88;21573;-79
2022/09/02 05:54:00;;;;;;;5.97;2.23;;;;;;;15.47;54.76;100381.72;1477527;87;21443;-79
2022/09/02 05:56:27;;;;;;;5.30;2.47;;;;;;;15.46;54.71;100388.08;1472545;87;21434;-78
2022/09/02 05:58:57;;;;;;;9.77;3.60;;;;;;;15.45;54.76;100386.40;1468292;87;21493;-79
2022/09/02 06:01:23;;;;;;;;;;;;;;;15.48;54.74;100375.40;1480700;88;23280;-86
2022/09/02 06:03:51;;;;;;;8.90;2.30;;;;;;;15.47;55.37;100384.39;1475384;87;20238;-86
2022/09/02 06:06:20;;;;;;;6.20;2.50;;;;;;;15.50;55.16;100377.36;1473967;88;21442;-85
2022/09/02 06:08:46;;;;;;;5.13;2.40;;;;;;;15.53;54.99;100375.66;1470252;88;21471;-87
2022/09/02 06:11:12;;;;;;;7.20;3.03;;;;;;;15.53;55.01;100375.66;1472949;87;21390;-86
2022/09/02 06:13:41;;;;;;;5.03;2.67;;;;;;;15.56;55.04;100375.30;1467827;88;21478;-87
2022/09/02 06:16:09;;;;;;;6.23;2.90;;;;;;;15.61;55.04;100382.77;1467422;87;21581;-85
2022/09/02 06:18:35;;;;;;;6.43;2.67;;;;;;;15.67;54.80;100384.70;1479078;87;21478;-85
2022/09/02 06:21:04;;;;;;;8.63;2.07;;;;;;;15.68;54.83;100388.57;1474482;88;21589;-85
2022/09/02 06:23:34;;;;;;;4.70;2.37;;;;;;;15.70;54.76;100389.70;1482160;87;22445;-86
2022/09/02 06:26:01;;;;;;;3.80;2.33;;;;;;;15.71;54.86;100386.88;1485177;87;21359;-86
2022/09/02 06:28:27;;;;;;;5.60;2.50;;;;;;;15.73;54.84;100392.83;1491772;87;21470;-86
2022/09/02 06:30:53;;;;;;;14.00;3.13;;;;;;;15.79;54.90;100388.61;1480455;88;22482;-87
2022/09/02 06:33:19;;;;;;;10.80;3.40;;;;;;;15.78;55.17;100386.45;1486439;87;21536;-87
2022/09/02 06:35:45;;;;;;;6.10;2.23;;;;;;;15.80;55.04;100386.28;1479245;87;22446;-87
2022/09/02 06:38:13;;;;;;;4.93;2.60;;;;;;;15.85;54.77;100391.05;1469658;88;21927;-87
2022/09/02 06:40:52;;;;;;;6.47;2.30;;;;;;;15.89;54.77;100387.03;1490329;87;21536;-88
2022/09/02 06:43:18;;;;;;;8.47;3.27;;;;;;;15.90;54.63;100388.16;1481966;87;21441;-85
2022/09/02 06:45:44;;;;;;;4.53;2.23;;;;;;;15.94;54.68;100389.95;1482603;87;21479;-84
2022/09/02 06:48:12;;;;;;;8.67;2.57;;;;;;;15.96;54.92;100397.28;1485906;87;21455;-88
2022/09/02 06:50:43;;;;;;;5.87;2.60;;;;;;;16.02;54.54;100401.88;1484159;87;21398;-87
2022/09/02 06:53:10;;;;;;;9.13;2.10;;;;;;;16.07;54.47;100404.01;1483937;87;22453;-88
2022/09/02 06:55:41;;;;;;;6.03;2.60;;;;;;;16.08;54.58;100400.31;1484663;87;21559;-88
2022/09/02 06:58:09;;;;;;;4.63;2.73;;;;;;;16.12;54.66;100401.11;1486888;88;21529;-91
2022/09/02 07:00:36;;;;;;;3.47;2.20;;;;;;;16.15;54.44;100391.39;1480357;88;21447;-91
2022/09/02 07:06:08;;;;;;;5.80;2.70;;;;;;;16.30;54.64;100402.58;1480136;87;21507;-93
2022/09/02 07:08:33;;;;;;;11.40;3.17;;;;;;;16.42;54.77;100399.74;1483797;87;21447;-91
2022/09/02 07:10:59;;;;;;;9.13;3.13;;;;;;;16.53;54.22;100401.12;1478537;87;21434;-92
2022/09/02 07:13:25;;;;;;;7.33;3.20;;;;;;;16.63;54.05;100401.15;1482794;88;21521;-91
2022/09/02 07:15:51;;;;;;;10.37;2.93;;;;;;;16.69;54.24;100404.41;1476263;88;22344;-89
2022/09/02 07:18:17;;;;;;;7.03;4.00;;;;;;;16.75;54.13;100404.67;1471276;87;21435;-90
2022/09/02 07:20:46;;;;;;;7.03;2.43;;;;;;;16.82;54.49;100409.09;1476108;87;21485;-90
2022/09/02 07:23:14;;;;;;;9.20;4.10;;;;;;;16.87;54.25;100405.86;1477574;88;21493;-88
2022/09/02 07:25:41;;;;;;;7.40;2.93;;;;;;;16.90;53.69;100410.83;1483642;88;21463;-88
2022/09/02 07:28:09;;;;;;;11.63;3.33;;;;;;;16.96;53.47;100415.41;1484409;87;21523;-88
2022/09/02 07:30:36;;;;;;;7.80;2.87;;;;;;;17.01;53.18;100414.85;1463284;88;21522;-88
2022/09/02 07:33:04;;;;;;;6.67;2.60;;;;;;;17.04;53.43;100417.97;1483247;88;21432;-89
2022/09/02 07:35:30;;;;;;;8.17;2.80;;;;;;;17.09;53.41;100412.89;1479975;87;21653;-87
2022/09/02 07:37:56;;;;;;;7.60;2.60;;;;;;;17.13;53.06;100425.36;1482969;87;21426;-90
2022/09/02 07:40:23;;;;;;;5.57;2.27;;;;;;;17.14;53.23;100421.66;1482602;87;22512;-87
2022/09/02 07:42:50;;;;;;;8.23;3.30;;;;;;;17.19;52.77;100414.41;1465493;88;21418;-90
2022/09/02 07:45:16;;;;;;;4.07;2.63;;;;;;;17.25;52.91;100417.14;1487682;88;21449;-90
2022/09/02 07:47:42;;;;;;;8.60;2.73;;;;;;;17.34;53.28;100417.83;1487966;87;22403;-89
2022/09/02 07:50:09;;;;;;;2.97;2.20;;;;;;;17.33;52.90;100418.86;1475009;88;21477;-89
2022/09/02 07:52:35;;;;;;;6.03;2.33;;;;;;;17.35;52.51;100416.83;1470994;86;21375;-92
2022/09/02 07:55:01;;;;;;;11.10;3.10;;;;;;;17.36;52.74;100421.16;1474265;86;21486;-89
2022/09/02 07:57:27;;;;;;;6.20;1.97;;;;;;;17.38;52.41;100419.13;1469292;88;21561;-85
2022/09/02 07:59:53;;;;;;;5.40;2.90;;;;;;;17.35;52.49;100410.97;1470368;88;21503;-87
2022/09/02 08:02:19;;;;;;;4.43;2.10;;;;;;;17.34;52.52;100417.31;1472702;88;22176;-87
2022/09/02 08:04:46;;;;;;;7.20;2.20;;;;;;;17.40;52.76;100417.06;1470878;88;21554;-87
2022/09/02 08:07:12;;;;;;;6.00;2.40;;;;;;;17.37;52.70;100425.47;1469334;88;21421;-92
2022/09/02 08:09:38;;;;;;;6.23;2.80;;;;;;;17.35;52.60;100416.83;1468515;88;21458;-88
2022/09/02 08:12:04;;;;;;;15.37;3.33;;;;;;;17.37;52.77;100420.13;1471525;88;21619;-87
2022/09/02 08:14:30;;;;;;;8.90;2.97;;;;;;;17.37;53.09;100418.78;1471215;88;22456;-89
2022/09/02 08:16:57;;;;;;;7.77;2.77;;;;;;;17.34;53.44;100418.66;1470548;88;21450;-90
2022/09/02 08:19:24;;;;;;;5.47;2.53;;;;;;;17.30;53.33;100415.23;1468627;88;21451;-86
2022/09/02 08:21:51;;;;;;;7.40;3.43;;;;;;;17.28;53.06;100415.41;1465161;88;21459;-89
2022/09/02 08:24:17;;;;;;;9.67;2.50;;;;;;;17.27;53.38;100413.77;1410516;88;21405;-87
2022/09/02 08:26:47;;;;;;;10.60;3.53;;;;;;;17.27;53.82;100415.63;1412405;87;21352;-89
2022/09/02 08:29:13;;;;;;;12.40;2.90;;;;;;;17.26;53.61;100411.27;1476887;87;21442;-91
2022/09/02 08:31:39;;;;;;;8.03;3.10;;;;;;;17.27;54.22;100419.63;1472379;88;21420;-90
2022/09/02 08:34:05;;;;;;;5.33;3.17;;;;;;;17.27;53.95;100420.45;1478707;88;21448;-89
2022/09/02 08:36:31;;;;;;;9.70;2.23;;;;;;;17.30;54.29;100424.59;1483244;88;21529;-88
2022/09/02 08:38:57;;;;;;;12.73;3.87;;;;;;;17.32;54.18;100423.87;1470671;87;21868;-87
2022/09/02 08:41:48;;;;;;;11.63;2.70;;;;;;;17.36;53.91;100424.65;1470480;88;21375;-90
2022/09/02 08:44:22;;;;;;;7.40;2.80;;;;;;;17.32;54.29;100420.72;1480522;88;21685;-82
2022/09/02 08:46:54;;;;;;;8.83;3.63;;;;;;;17.36;54.03;100428.66;1480467;88;21673;-87
2022/09/02 08:49:37;;;;;;;13.63;3.50;;;;;;;17.35;54.29;100426.20;1481306;87;21725;-89
2022/09/02 08:52:05;;;;;;;10.43;3.60;;;;;;;17.33;54.75;100430.91;1480882;87;21574;-91
2022/09/02 08:54:38;;;;;;;8.23;2.63;;;;;;;17.33;54.78;100430.39;1480643;87;21432;-91
2022/09/02 08:57:05;;;;;;;15.43;3.60;;;;;;;17.26;55.17;100424.16;1481696;87;21485;-88
2022/09/02 08:59:31;;;;;;;13.93;4.47;;;;;;;17.26;55.51;100430.84;1478983;87;21441;-92
2022/09/02 09:02:27;;;;;;;21.97;4.10;;;;;;;17.24;56.02;100426.70;1477817;87;21403;-88
2022/09/02 09:05:17;;;;;;;5.40;2.80;;;;;;;17.23;57.03;100437.06;1481537;87;21580;-89
2022/09/02 09:08:20;;;;;;;8.28;2.80;;;;;;;17.25;57.84;100421.66;1385433;88;21412;-84
2022/09/02 09:11:13;;;;;;;10.70;3.30;;;;;;;17.20;59.72;100426.75;1389106;89;22373;-88
2022/09/02 09:14:03;;;;;;;13.47;3.73;;;;;;;17.27;59.37;100430.34;1523634;88;21494;-89
2022/09/02 09:16:53;;;;;;;8.17;3.40;;;;;;;17.30;61.30;100429.95;1407519;88;21534;-83
2022/09/02 09:19:48;;;;;;;9.50;3.00;;;;;;;17.30;60.18;100429.95;1544358;88;21390;-86
2022/09/02 09:22:18;;;;;;;13.03;3.50;;;;;;;17.29;61.33;100435.81;1503018;89;21345;-84
2022/09/02 09:24:48;;;;;;;11.50;3.53;;;;;;;17.28;61.24;100432.80;1458282;88;21545;-85
2022/09/02 09:27:21;;;;;;;7.40;2.93;;;;;;;17.32;61.09;100427.89;1458791;88;21455;-88
2022/09/02 09:29:49;;;;;;;13.27;4.07;;;;;;;17.34;61.44;100432.55;1461112;88;21427;-86
2022/09/02 09:32:38;;;;;;;14.93;3.93;;;;;;;17.35;61.35;100435.05;1460726;89;23365;-89
2022/09/02 09:35:10;;;;;;;21.07;3.83;;;;;;;17.36;61.93;100430.52;1460544;89;21647;-88
2022/09/02 09:37:47;;;;;;;19.33;3.83;;;;;;;17.36;62.05;100435.35;1457005;89;21449;-86
2022/09/02 09:40:29;;;;;;;16.53;3.67;;;;;;;17.36;63.70;100431.34;1384393;89;21537;-89
2022/09/02 09:43:04;;;;;;;30.70;4.33;;;;;;;17.38;62.41;100432.50;1557051;87;21279;-90
2022/09/02 09:45:38;;;;;;;11.17;4.43;;;;;;;17.39;63.60;100438.16;1384586;89;21368;-87
2022/09/02 09:48:24;;;;;;;11.07;4.17;;;;;;;17.40;63.27;100441.14;1552279;87;21354;-82
2022/09/02 09:51:02;;;;;;;11.37;3.63;;;;;;;17.41;62.82;100438.80;1556184;88;21360;-85
2022/09/02 09:53:32;;;;;;;14.57;4.23;;;;;;;17.36;63.58;100435.87;1493089;88;21522;-90
2022/09/02 09:56:06;;;;;;;11.78;3.47;;;;;;;17.31;64.72;100435.61;1562000;88;21281;-88
2022/09/02 09:58:45;;;;;;;11.47;4.10;;;;;;;17.31;64.98;100436.94;1560722;88;21280;-89
2022/09/02 10:01:32;;;;;;;8.93;3.47;;;;;;;17.29;65.14;100437.64;1400304;88;21353;-83
2022/09/02 10:04:05;;;;;;;13.63;3.53;;;;;;;17.26;66.42;100438.02;1562711;88;22264;-84
2022/09/02 10:06:37;;;;;;;12.00;3.50;;;;;;;17.25;66.80;100444.39;1553640;86;21473;-88
2022/09/02 10:09:07;;;;;;;16.50;3.30;;;;;;;17.20;67.18;100448.97;1555894;88;21459;-92
2022/09/02 10:11:36;;;;;;;17.10;4.60;;;;;;;17.20;67.58;100444.13;1433254;88;21338;-89
2022/09/02 10:14:10;;;;;;;12.93;3.87;;;;;;;17.22;68.75;100445.60;1402704;87;22402;-90
2022/09/02 10:17:05;;;;;;;10.10;3.50;;;;;;;17.21;69.13;100441.80;1562039;87;21337;-88
2022/09/02 10:19:49;;;;;;;11.83;3.00;;;;;;;17.17;69.04;100440.51;1567896;87;21294;-91
2022/09/02 10:22:49;;;;;;;10.50;3.67;;;;;;;17.09;69.20;100438.29;1493753;88;22092;-90
2022/09/02 10:25:32;;;;;;;5.35;3.37;;;;;;;17.08;69.83;100443.81;1471842;87;22277;-87
2022/09/02 10:28:11;;;;;;;9.57;3.43;;;;;;;17.08;70.39;100445.14;1481053;88;21514;-89
2022/09/02 10:30:53;;;;;;;5.87;3.47;;;;;;;17.07;71.68;100442.98;1483482;87;22387;-91
2022/09/02 10:33:30;;;;;;;10.07;4.17;;;;;;;17.06;71.66;100442.68;1447388;88;22550;-88
2022/09/02 10:36:17;;;;;;;8.53;4.63;;;;;;;17.05;72.01;100441.00;1483312;87;22423;-86
2022/09/02 10:38:47;;;;;;;12.53;5.27;;;;;;;17.04;71.82;100449.23;1489193;88;21632;-87
2022/09/02 10:41:33;;;;;;;16.70;4.05;;;;;;;17.02;72.93;100450.74;1465821;88;22366;-90
2022/09/02 10:44:26;;;;;;;9.27;4.13;;;;;;;17.03;73.07;100448.41;1483282;88;21595;-89
2022/09/02 10:47:00;;;;;;;9.03;3.57;;;;;;;17.02;74.10;100449.41;1480892;87;21478;-89
2022/09/02 10:50:01;;;;;;;16.33;4.60;;;;;;;16.95;74.07;100448.52;1482807;88;21522;-91
2022/09/02 10:52:45;;;;;;;10.30;3.93;;;;;;;16.93;74.28;100446.53;1486534;87;21580;-86
2022/09/02 10:55:41;;;;;;;8.07;3.73;;;;;;;16.95;74.46;100455.72;1485146;88;21558;-89
2022/09/02 10:58:11;;;;;;;11.17;4.70;;;;;;;16.94;76.68;100451.37;1484012;88;21470;-89
2022/09/02 11:00:41;;;;;;;14.30;3.77;;;;;;;16.94;75.49;100457.53;1479660;87;21640;-91
2022/09/02 11:03:19;;;;;;;12.37;4.05;;;;;;;16.95;76.42;100455.72;1428496;88;22565;-87
2022/09/02 11:05:59;;;;;;;6.27;3.63;;;;;;;16.96;76.64;100456.84;1564826;87;21257;-89
2022/09/02 11:08:48;;;;;;;10.20;4.42;;;;;;;16.95;78.04;100457.05;1402954;89;21633;-90
2022/09/02 11:11:24;;;;;;;14.33;5.10;;;;;;;16.90;77.69;100453.08;1563384;88;22147;-90
2022/09/02 11:14:37;;;;;;;10.23;3.63;;;;;;;16.85;77.73;100453.33;1539995;88;21405;-87
2022/09/02 11:17:08;;;;;;;10.47;4.77;;;;;;;16.83;77.70;100453.53;1405390;88;21338;-87
2022/09/02 11:19:42;;;;;;;9.50;3.43;;;;;;;16.83;79.02;100454.02;1565429;88;21524;-91
2022/09/02 11:22:20;;;;;;;14.50;4.03;;;;;;;16.84;79.09;100454.35;1401538;89;21375;-92
2022/09/02 11:25:15;;;;;;;11.53;4.67;;;;;;;16.84;80.15;100456.52;1404844;88;21406;-93
2022/09/02 11:27:49;;;;;;;6.67;3.80;;;;;;;16.81;80.54;100446.71;1549212;88;21360;-86
2022/09/02 11:30:22;;;;;;;10.63;4.13;;;;;;;16.79;79.65;100447.39;1528133;90;21536;-87
2022/09/02 11:33:15;;;;;;;9.03;3.77;;;;;;;16.80;79.70;100450.37;1369900;90;21423;-91
2022/09/02 11:35:43;;;;;;;10.60;4.03;;;;;;;16.83;79.59;100448.66;1383997;90;22201;-88
2022/09/02 11:38:37;;;;;;;13.13;4.80;;;;;;;16.86;80.89;100450.48;1372333;90;22199;-87
2022/09/02 11:41:27;;;;;;;12.80;4.23;;;;;;;16.94;81.02;100449.52;1522538;90;21378;-90
2022/09/02 11:44:01;;;;;;;7.97;4.63;;;;;;;16.96;80.80;100448.83;1406298;90;21533;-89
2022/09/02 11:47:14;;;;;;;9.23;4.53;;;;;;;16.97;81.46;100449.65;1528441;90;21326;-93